sensor_id;sensor_type;location;lat;lon;timestamp;P1;durP1;ratioP1;P2;durP2;ratioP2
59880;SDS011;45751;51.380;10.326;2023-02-28T00:01:24;3.95;;;0.95;;
59880;SDS011;45751;51.380;10.326;2023-02-28T00:03:52;3.17;;;1.25;;
59880;SDS011;45751;51.380;10.326;2023-02-28T00:06:19;3.83;;;1.38;;
59880;SDS011;45751;51.380;10.326;2023-02-28T00:08:47;2.42;;;0.60;;
59880;SDS011;45751;51.380;10.326;2023-02-28T00:11:14;4.20;;;1.13;;
59880;SDS011;45751;51.380;10.326;2023-02-28T00:13:43;1.42;;;0.40;;
59880;SDS011;45751;51.380;10.326;2023-02-28T00:16:16;2.53;;;1.00;;
59880;SDS011;45751;51.380;10.326;2023-02-28T00:18:45;1.27;;;0.43;;
59880;SDS011;45751;51.380;10.326;2023-02-28T00:21:13;2.33;;;0.65;;
59880;SDS011;45751;51.380;10.326;2023-02-28T00:23:41;1.40;;;0.60;;
59880;SDS011;45751;51.380;10.326;2023-02-28T00:26:08;3.53;;;1.08;;
59880;SDS011;45751;51.380;10.326;2023-02-28T00:28:36;4.25;;;0.88;;
59880;SDS011;45751;51.380;10.326;2023-02-28T00:31:02;1.42;;;0.57;;
59880;SDS011;45751;51.380;10.326;2023-02-28T00:33:30;2.00;;;0.82;;
59880;SDS011;45751;51.380;10.326;2023-02-28T00:36:06;1.38;;;0.63;;
59880;SDS011;45751;51.380;10.326;2023-02-28T00:38:36;1.70;;;0.70;;
59880;SDS011;45751;51.380;10.326;2023-02-28T00:41:04;2.15;;;0.73;;
59880;SDS011;45751;51.380;10.326;2023-02-28T00:43:32;1.85;;;0.60;;
59880;SDS011;45751;51.380;10.326;2023-02-28T00:46:00;3.17;;;1.05;;
59880;SDS011;45751;51.380;10.326;2023-02-28T00:48:29;1.80;;;0.52;;
59880;SDS011;45751;51.380;10.326;2023-02-28T00:50:56;2.00;;;0.63;;
59880;SDS011;45751;51.380;10.326;2023-02-28T00:53:24;1.75;;;0.50;;
59880;SDS011;45751;51.380;10.326;2023-02-28T00:55:51;2.55;;;0.93;;
59880;SDS011;45751;51.380;10.326;2023-02-28T00:58:18;0.98;;;0.30;;
59880;SDS011;45751;51.380;10.326;2023-02-28T01:00:45;2.03;;;0.77;;
59880;SDS011;45751;51.380;10.326;2023-02-28T01:03:18;2.22;;;0.70;;
59880;SDS011;45751;51.380;10.326;2023-02-28T01:05:46;3.35;;;0.75;;
59880;SDS011;45751;51.380;10.326;2023-02-28T01:08:15;0.30;;;0.20;;
59880;SDS011;45751;51.380;10.326;2023-02-28T01:10:42;2.33;;;0.77;;
59880;SDS011;45751;51.380;10.326;2023-02-28T01:13:09;2.58;;;0.85;;
59880;SDS011;45751;51.380;10.326;2023-02-28T01:15:37;1.70;;;0.75;;
59880;SDS011;45751;51.380;10.326;2023-02-28T01:18:07;1.75;;;0.63;;
59880;SDS011;45751;51.380;10.326;2023-02-28T01:20:36;2.05;;;0.82;;
59880;SDS011;45751;51.380;10.326;2023-02-28T01:23:03;1.90;;;0.70;;
59880;SDS011;45751;51.380;10.326;2023-02-28T01:25:30;2.05;;;0.70;;
59880;SDS011;45751;51.380;10.326;2023-02-28T01:27:57;2.38;;;1.20;;
59880;SDS011;45751;51.380;10.326;2023-02-28T01:30:25;3.05;;;1.17;;
59880;SDS011;45751;51.380;10.326;2023-02-28T01:32:52;1.45;;;0.55;;
59880;SDS011;45751;51.380;10.326;2023-02-28T01:35:19;2.92;;;0.77;;
59880;SDS011;45751;51.380;10.326;2023-02-28T01:37:46;2.58;;;0.95;;
59880;SDS011;45751;51.380;10.326;2023-02-28T01:40:13;2.97;;;1.10;;
59880;SDS011;45751;51.380;10.326;2023-02-28T01:42:41;2.88;;;0.70;;
59880;SDS011;45751;51.380;10.326;2023-02-28T01:45:17;2.25;;;0.82;;
59880;SDS011;45751;51.380;10.326;2023-02-28T01:47:48;4.68;;;1.30;;
59880;SDS011;45751;51.380;10.326;2023-02-28T01:50:18;3.22;;;1.05;;
59880;SDS011;45751;51.380;10.326;2023-02-28T01:52:47;2.80;;;0.93;;
59880;SDS011;45751;51.380;10.326;2023-02-28T01:55:15;1.67;;;0.70;;
59880;SDS011;45751;51.380;10.326;2023-02-28T01:57:48;3.83;;;1.23;;
59880;SDS011;45751;51.380;10.326;2023-02-28T02:00:20;2.88;;;0.70;;
59880;SDS011;45751;51.380;10.326;2023-02-28T02:02:51;1.67;;;0.50;;
59880;SDS011;45751;51.380;10.326;2023-02-28T02:05:22;2.70;;;1.10;;
59880;SDS011;45751;51.380;10.326;2023-02-28T02:07:52;5.40;;;2.20;;
59880;SDS011;45751;51.380;10.326;2023-02-28T02:13:14;4.15;;;2.00;;
59880;SDS011;45751;51.380;10.326;2023-02-28T02:25:00;3.00;;;0.60;;
59880;SDS011;45751;51.380;10.326;2023-02-28T02:39:29;4.13;;;0.65;;
59880;SDS011;45751;51.380;10.326;2023-02-28T02:42:11;2.17;;;0.47;;
59880;SDS011;45751;51.380;10.326;2023-02-28T02:44:44;2.15;;;0.50;;
59880;SDS011;45751;51.380;10.326;2023-02-28T02:47:16;2.80;;;0.85;;
59880;SDS011;45751;51.380;10.326;2023-02-28T02:49:47;3.70;;;0.57;;
59880;SDS011;45751;51.380;10.326;2023-02-28T02:52:18;2.85;;;0.90;;
59880;SDS011;45751;51.380;10.326;2023-02-28T02:54:51;5.10;;;1.42;;
59880;SDS011;45751;51.380;10.326;2023-02-28T02:57:36;3.13;;;0.82;;
59880;SDS011;45751;51.380;10.326;2023-02-28T03:00:06;2.90;;;0.50;;
59880;SDS011;45751;51.380;10.326;2023-02-28T03:02:35;1.70;;;0.38;;
59880;SDS011;45751;51.380;10.326;2023-02-28T03:05:06;1.45;;;0.38;;
59880;SDS011;45751;51.380;10.326;2023-02-28T03:07:39;1.50;;;0.60;;
59880;SDS011;45751;51.380;10.326;2023-02-28T03:12:58;1.70;;;0.57;;
59880;SDS011;45751;51.380;10.326;2023-02-28T03:15:35;1.55;;;0.60;;
59880;SDS011;45751;51.380;10.326;2023-02-28T03:18:27;2.25;;;0.70;;
59880;SDS011;45751;51.380;10.326;2023-02-28T03:26:25;0.95;;;0.40;;
59880;SDS011;45751;51.380;10.326;2023-02-28T03:29:02;5.85;;;1.10;;
59880;SDS011;45751;51.380;10.326;2023-02-28T03:31:48;1.92;;;0.70;;
59880;SDS011;45751;51.380;10.326;2023-02-28T03:34:24;3.67;;;1.67;;
59880;SDS011;45751;51.380;10.326;2023-02-28T03:37:01;3.33;;;0.77;;
59880;SDS011;45751;51.380;10.326;2023-02-28T03:39:37;2.85;;;0.95;;
59880;SDS011;45751;51.380;10.326;2023-02-28T03:42:13;2.58;;;1.00;;
59880;SDS011;45751;51.380;10.326;2023-02-28T03:47:51;2.22;;;0.93;;
59880;SDS011;45751;51.380;10.326;2023-02-28T03:52:57;4.07;;;1.55;;
59880;SDS011;45751;51.380;10.326;2023-02-28T03:55:45;3.53;;;1.17;;
59880;SDS011;45751;51.380;10.326;2023-02-28T03:58:24;1.77;;;0.50;;
59880;SDS011;45751;51.380;10.326;2023-02-28T04:01:01;1.45;;;0.50;;
59880;SDS011;45751;51.380;10.326;2023-02-28T04:03:34;1.55;;;0.60;;
59880;SDS011;45751;51.380;10.326;2023-02-28T04:06:02;1.98;;;0.68;;
59880;SDS011;45751;51.380;10.326;2023-02-28T04:08:32;3.30;;;0.52;;
59880;SDS011;45751;51.380;10.326;2023-02-28T04:11:04;1.15;;;0.52;;
59880;SDS011;45751;51.380;10.326;2023-02-28T04:13:41;1.95;;;0.60;;
59880;SDS011;45751;51.380;10.326;2023-02-28T04:16:11;1.42;;;0.45;;
59880;SDS011;45751;51.380;10.326;2023-02-28T04:18:57;2.10;;;0.63;;
59880;SDS011;45751;51.380;10.326;2023-02-28T04:21:29;1.52;;;0.73;;
59880;SDS011;45751;51.380;10.326;2023-02-28T04:23:56;3.05;;;0.77;;
59880;SDS011;45751;51.380;10.326;2023-02-28T04:26:30;1.55;;;0.60;;
59880;SDS011;45751;51.380;10.326;2023-02-28T04:29:05;2.10;;;0.80;;
59880;SDS011;45751;51.380;10.326;2023-02-28T04:31:32;3.42;;;0.90;;
59880;SDS011;45751;51.380;10.326;2023-02-28T04:34:00;2.22;;;0.80;;
59880;SDS011;45751;51.380;10.326;2023-02-28T04:36:27;3.30;;;0.95;;
59880;SDS011;45751;51.380;10.326;2023-02-28T04:38:54;2.75;;;0.95;;
59880;SDS011;45751;51.380;10.326;2023-02-28T04:41:21;2.42;;;0.80;;
59880;SDS011;45751;51.380;10.326;2023-02-28T04:43:50;1.75;;;0.68;;
59880;SDS011;45751;51.380;10.326;2023-02-28T04:46:19;2.15;;;0.45;;
59880;SDS011;45751;51.380;10.326;2023-02-28T04:48:46;3.53;;;1.17;;
59880;SDS011;45751;51.380;10.326;2023-02-28T04:51:13;2.50;;;1.20;;
59880;SDS011;45751;51.380;10.326;2023-02-28T04:53:42;1.35;;;0.45;;
59880;SDS011;45751;51.380;10.326;2023-02-28T04:56:11;2.17;;;0.50;;
59880;SDS011;45751;51.380;10.326;2023-02-28T04:58:39;1.80;;;0.75;;
59880;SDS011;45751;51.380;10.326;2023-02-28T05:04:03;5.63;;;0.90;;
59880;SDS011;45751;51.380;10.326;2023-02-28T05:06:33;3.03;;;1.15;;
59880;SDS011;45751;51.380;10.326;2023-02-28T05:09:00;2.17;;;0.50;;
59880;SDS011;45751;51.380;10.326;2023-02-28T05:11:28;3.47;;;0.80;;
59880;SDS011;45751;51.380;10.326;2023-02-28T05:14:01;2.25;;;0.90;;
59880;SDS011;45751;51.380;10.326;2023-02-28T05:16:29;2.92;;;1.23;;
59880;SDS011;45751;51.380;10.326;2023-02-28T05:18:57;1.75;;;0.65;;
59880;SDS011;45751;51.380;10.326;2023-02-28T05:23:51;1.65;;;0.50;;
59880;SDS011;45751;51.380;10.326;2023-02-28T05:26:19;1.67;;;0.60;;
59880;SDS011;45751;51.380;10.326;2023-02-28T05:28:46;5.43;;;1.30;;
59880;SDS011;45751;51.380;10.326;2023-02-28T05:31:13;3.20;;;1.25;;
59880;SDS011;45751;51.380;10.326;2023-02-28T05:33:40;1.98;;;0.82;;
59880;SDS011;45751;51.380;10.326;2023-02-28T05:36:07;2.92;;;0.80;;
59880;SDS011;45751;51.380;10.326;2023-02-28T05:38:34;2.05;;;0.70;;
59880;SDS011;45751;51.380;10.326;2023-02-28T05:41:04;2.92;;;1.15;;
59880;SDS011;45751;51.380;10.326;2023-02-28T05:43:33;3.70;;;1.08;;
59880;SDS011;45751;51.380;10.326;2023-02-28T05:46:07;2.67;;;0.80;;
59880;SDS011;45751;51.380;10.326;2023-02-28T05:48:36;1.65;;;0.60;;
59880;SDS011;45751;51.380;10.326;2023-02-28T05:51:04;3.40;;;0.77;;
59880;SDS011;45751;51.380;10.326;2023-02-28T05:53:32;4.03;;;1.27;;
59880;SDS011;45751;51.380;10.326;2023-02-28T05:55:59;4.18;;;1.45;;
59880;SDS011;45751;51.380;10.326;2023-02-28T05:58:26;2.63;;;0.88;;
59880;SDS011;45751;51.380;10.326;2023-02-28T06:00:57;3.65;;;1.20;;
59880;SDS011;45751;51.380;10.326;2023-02-28T06:03:24;2.15;;;0.80;;
59880;SDS011;45751;51.380;10.326;2023-02-28T06:05:52;3.00;;;0.90;;
59880;SDS011;45751;51.380;10.326;2023-02-28T06:08:20;3.38;;;0.98;;
59880;SDS011;45751;51.380;10.326;2023-02-28T06:10:47;2.70;;;0.77;;
59880;SDS011;45751;51.380;10.326;2023-02-28T06:13:14;4.10;;;1.08;;
59880;SDS011;45751;51.380;10.326;2023-02-28T06:15:41;3.05;;;1.00;;
59880;SDS011;45751;51.380;10.326;2023-02-28T06:18:08;2.80;;;1.05;;
59880;SDS011;45751;51.380;10.326;2023-02-28T06:20:35;2.50;;;0.93;;
59880;SDS011;45751;51.380;10.326;2023-02-28T06:23:02;3.75;;;1.45;;
59880;SDS011;45751;51.380;10.326;2023-02-28T06:25:29;2.42;;;0.82;;
59880;SDS011;45751;51.380;10.326;2023-02-28T06:27:56;2.15;;;0.80;;
59880;SDS011;45751;51.380;10.326;2023-02-28T06:30:23;1.95;;;0.70;;
59880;SDS011;45751;51.380;10.326;2023-02-28T06:32:53;2.90;;;0.90;;
59880;SDS011;45751;51.380;10.326;2023-02-28T06:35:21;3.38;;;1.27;;
59880;SDS011;45751;51.380;10.326;2023-02-28T06:37:48;4.10;;;1.20;;
59880;SDS011;45751;51.380;10.326;2023-02-28T06:40:15;2.83;;;0.90;;
59880;SDS011;45751;51.380;10.326;2023-02-28T06:42:42;3.85;;;0.90;;
59880;SDS011;45751;51.380;10.326;2023-02-28T06:45:10;2.10;;;0.75;;
59880;SDS011;45751;51.380;10.326;2023-02-28T06:47:38;4.38;;;0.85;;
59880;SDS011;45751;51.380;10.326;2023-02-28T06:50:07;3.85;;;1.35;;
59880;SDS011;45751;51.380;10.326;2023-02-28T06:52:36;2.60;;;1.08;;
59880;SDS011;45751;51.380;10.326;2023-02-28T06:55:07;2.97;;;1.23;;
59880;SDS011;45751;51.380;10.326;2023-02-28T06:57:34;2.83;;;1.10;;
59880;SDS011;45751;51.380;10.326;2023-02-28T07:00:06;2.38;;;0.88;;
59880;SDS011;45751;51.380;10.326;2023-02-28T07:02:36;3.42;;;1.33;;
59880;SDS011;45751;51.380;10.326;2023-02-28T07:05:04;3.85;;;1.55;;
59880;SDS011;45751;51.380;10.326;2023-02-28T07:07:32;2.60;;;0.93;;
59880;SDS011;45751;51.380;10.326;2023-02-28T07:09:59;3.58;;;0.80;;
59880;SDS011;45751;51.380;10.326;2023-02-28T07:12:26;2.22;;;0.70;;
59880;SDS011;45751;51.380;10.326;2023-02-28T07:14:53;4.57;;;1.33;;
59880;SDS011;45751;51.380;10.326;2023-02-28T07:17:22;6.55;;;1.48;;
59880;SDS011;45751;51.380;10.326;2023-02-28T07:19:49;2.08;;;0.68;;
59880;SDS011;45751;51.380;10.326;2023-02-28T07:22:15;2.97;;;1.02;;
59880;SDS011;45751;51.380;10.326;2023-02-28T07:24:42;4.40;;;1.50;;
59880;SDS011;45751;51.380;10.326;2023-02-28T07:27:10;5.35;;;1.60;;
59880;SDS011;45751;51.380;10.326;2023-02-28T07:29:37;6.95;;;1.00;;
59880;SDS011;45751;51.380;10.326;2023-02-28T07:32:04;3.55;;;1.10;;
59880;SDS011;45751;51.380;10.326;2023-02-28T07:34:31;4.53;;;1.67;;
59880;SDS011;45751;51.380;10.326;2023-02-28T07:36:58;5.15;;;2.38;;
59880;SDS011;45751;51.380;10.326;2023-02-28T07:39:25;3.60;;;1.15;;
59880;SDS011;45751;51.380;10.326;2023-02-28T07:41:52;4.75;;;1.65;;
59880;SDS011;45751;51.380;10.326;2023-02-28T07:44:23;7.55;;;1.60;;
59880;SDS011;45751;51.380;10.326;2023-02-28T07:46:51;2.95;;;1.20;;
59880;SDS011;45751;51.380;10.326;2023-02-28T07:49:19;2.42;;;0.80;;
59880;SDS011;45751;51.380;10.326;2023-02-28T07:51:45;2.78;;;0.90;;
59880;SDS011;45751;51.380;10.326;2023-02-28T07:54:12;3.45;;;1.48;;
59880;SDS011;45751;51.380;10.326;2023-02-28T07:56:39;3.65;;;1.10;;
59880;SDS011;45751;51.380;10.326;2023-02-28T07:59:06;2.58;;;0.88;;
59880;SDS011;45751;51.380;10.326;2023-02-28T08:01:33;2.95;;;1.05;;
59880;SDS011;45751;51.380;10.326;2023-02-28T08:04:00;6.20;;;1.73;;
59880;SDS011;45751;51.380;10.326;2023-02-28T08:06:27;4.53;;;1.67;;
59880;SDS011;45751;51.380;10.326;2023-02-28T08:08:53;2.38;;;1.05;;
59880;SDS011;45751;51.380;10.326;2023-02-28T08:11:22;5.28;;;1.52;;
59880;SDS011;45751;51.380;10.326;2023-02-28T08:13:49;4.07;;;1.45;;
59880;SDS011;45751;51.380;10.326;2023-02-28T08:16:16;4.00;;;1.48;;
59880;SDS011;45751;51.380;10.326;2023-02-28T08:18:51;6.88;;;1.58;;
59880;SDS011;45751;51.380;10.326;2023-02-28T08:21:18;3.97;;;1.02;;
59880;SDS011;45751;51.380;10.326;2023-02-28T08:23:50;4.10;;;1.70;;
59880;SDS011;45751;51.380;10.326;2023-02-28T08:26:17;3.97;;;1.42;;
59880;SDS011;45751;51.380;10.326;2023-02-28T08:28:45;7.65;;;2.13;;
59880;SDS011;45751;51.380;10.326;2023-02-28T08:31:13;1.73;;;0.57;;
59880;SDS011;45751;51.380;10.326;2023-02-28T08:33:42;4.28;;;1.20;;
59880;SDS011;45751;51.380;10.326;2023-02-28T08:36:10;4.03;;;1.08;;
59880;SDS011;45751;51.380;10.326;2023-02-28T08:38:38;5.07;;;1.83;;
59880;SDS011;45751;51.380;10.326;2023-02-28T08:41:06;4.05;;;1.73;;
59880;SDS011;45751;51.380;10.326;2023-02-28T08:43:35;4.32;;;1.52;;
59880;SDS011;45751;51.380;10.326;2023-02-28T08:46:03;4.47;;;1.58;;
59880;SDS011;45751;51.380;10.326;2023-02-28T08:48:31;2.63;;;0.88;;
59880;SDS011;45751;51.380;10.326;2023-02-28T08:51:01;4.78;;;1.52;;
59880;SDS011;45751;51.380;10.326;2023-02-28T08:53:34;4.65;;;2.17;;
59880;SDS011;45751;51.380;10.326;2023-02-28T08:56:06;5.57;;;2.15;;
59880;SDS011;45751;51.380;10.326;2023-02-28T08:58:43;5.88;;;1.67;;
59880;SDS011;45751;51.380;10.326;2023-02-28T09:01:11;5.18;;;2.28;;
59880;SDS011;45751;51.380;10.326;2023-02-28T09:03:40;3.50;;;1.20;;
59880;SDS011;45751;51.380;10.326;2023-02-28T09:06:08;4.20;;;1.52;;
59880;SDS011;45751;51.380;10.326;2023-02-28T09:08:36;4.50;;;2.13;;
59880;SDS011;45751;51.380;10.326;2023-02-28T09:11:03;13.38;;;3.70;;
59880;SDS011;45751;51.380;10.326;2023-02-28T09:13:31;8.82;;;2.85;;
59880;SDS011;45751;51.380;10.326;2023-02-28T09:15:59;4.13;;;1.38;;
59880;SDS011;45751;51.380;10.326;2023-02-28T09:18:27;5.82;;;2.70;;
59880;SDS011;45751;51.380;10.326;2023-02-28T09:20:54;6.10;;;1.25;;
59880;SDS011;45751;51.380;10.326;2023-02-28T09:23:21;3.25;;;1.23;;
59880;SDS011;45751;51.380;10.326;2023-02-28T09:25:49;6.20;;;2.08;;
59880;SDS011;45751;51.380;10.326;2023-02-28T09:28:18;4.80;;;2.13;;
59880;SDS011;45751;51.380;10.326;2023-02-28T09:30:47;4.25;;;1.55;;
59880;SDS011;45751;51.380;10.326;2023-02-28T09:33:15;6.78;;;1.80;;
59880;SDS011;45751;51.380;10.326;2023-02-28T09:35:45;4.32;;;1.20;;
59880;SDS011;45751;51.380;10.326;2023-02-28T09:38:12;4.00;;;1.58;;
59880;SDS011;45751;51.380;10.326;2023-02-28T09:40:49;6.07;;;1.48;;
59880;SDS011;45751;51.380;10.326;2023-02-28T09:43:20;2.75;;;0.90;;
59880;SDS011;45751;51.380;10.326;2023-02-28T09:45:51;5.93;;;1.60;;
59880;SDS011;45751;51.380;10.326;2023-02-28T09:48:28;8.68;;;3.30;;
59880;SDS011;45751;51.380;10.326;2023-02-28T09:51:13;7.15;;;2.72;;
59880;SDS011;45751;51.380;10.326;2023-02-28T09:53:41;7.85;;;1.92;;
59880;SDS011;45751;51.380;10.326;2023-02-28T09:56:24;3.63;;;1.25;;
59880;SDS011;45751;51.380;10.326;2023-02-28T09:59:01;6.53;;;1.98;;
59880;SDS011;45751;51.380;10.326;2023-02-28T10:06:45;6.32;;;1.35;;
59880;SDS011;45751;51.380;10.326;2023-02-28T10:09:17;6.50;;;1.42;;
59880;SDS011;45751;51.380;10.326;2023-02-28T10:11:53;3.22;;;1.15;;
59880;SDS011;45751;51.380;10.326;2023-02-28T10:14:26;3.17;;;1.00;;
59880;SDS011;45751;51.380;10.326;2023-02-28T10:16:56;4.97;;;1.92;;
59880;SDS011;45751;51.380;10.326;2023-02-28T10:19:30;4.70;;;1.30;;
59880;SDS011;45751;51.380;10.326;2023-02-28T10:22:15;7.43;;;2.90;;
59880;SDS011;45751;51.380;10.326;2023-02-28T10:24:48;6.50;;;1.27;;
59880;SDS011;45751;51.380;10.326;2023-02-28T10:27:18;5.40;;;2.00;;
59880;SDS011;45751;51.380;10.326;2023-02-28T10:29:51;4.40;;;1.40;;
59880;SDS011;45751;51.380;10.326;2023-02-28T10:32:21;3.63;;;1.13;;
59880;SDS011;45751;51.380;10.326;2023-02-28T10:34:51;10.23;;;3.38;;
59880;SDS011;45751;51.380;10.326;2023-02-28T10:37:25;7.68;;;2.33;;
59880;SDS011;45751;51.380;10.326;2023-02-28T10:39:53;6.50;;;2.20;;
59880;SDS011;45751;51.380;10.326;2023-02-28T10:45:11;5.45;;;1.77;;
59880;SDS011;45751;51.380;10.326;2023-02-28T10:47:48;4.38;;;1.67;;
59880;SDS011;45751;51.380;10.326;2023-02-28T10:50:28;7.13;;;2.28;;
59880;SDS011;45751;51.380;10.326;2023-02-28T10:55:56;7.07;;;2.08;;
59880;SDS011;45751;51.380;10.326;2023-02-28T10:58:29;6.20;;;1.55;;
59880;SDS011;45751;51.380;10.326;2023-02-28T11:00:58;6.20;;;1.70;;
59880;SDS011;45751;51.380;10.326;2023-02-28T11:03:30;7.85;;;2.90;;
59880;SDS011;45751;51.380;10.326;2023-02-28T11:06:04;13.50;;;4.82;;
59880;SDS011;45751;51.380;10.326;2023-02-28T11:08:46;8.27;;;2.72;;
59880;SDS011;45751;51.380;10.326;2023-02-28T11:11:16;6.53;;;2.08;;
59880;SDS011;45751;51.380;10.326;2023-02-28T11:13:45;3.72;;;1.33;;
59880;SDS011;45751;51.380;10.326;2023-02-28T11:16:14;8.02;;;3.17;;
59880;SDS011;45751;51.380;10.326;2023-02-28T11:18:54;8.30;;;3.65;;
59880;SDS011;45751;51.380;10.326;2023-02-28T11:21:29;6.55;;;2.85;;
59880;SDS011;45751;51.380;10.326;2023-02-28T11:26:48;5.20;;;1.63;;
59880;SDS011;45751;51.380;10.326;2023-02-28T11:34:31;6.97;;;1.63;;
59880;SDS011;45751;51.380;10.326;2023-02-28T11:36:59;5.10;;;1.60;;
59880;SDS011;45751;51.380;10.326;2023-02-28T11:39:27;9.38;;;2.03;;
59880;SDS011;45751;51.380;10.326;2023-02-28T11:47:37;9.95;;;3.33;;
59880;SDS011;45751;51.380;10.326;2023-02-28T11:52:57;7.95;;;2.60;;
59880;SDS011;45751;51.380;10.326;2023-02-28T12:06:32;10.18;;;2.05;;
59880;SDS011;45751;51.380;10.326;2023-02-28T12:12:21;6.55;;;2.95;;
59880;SDS011;45751;51.380;10.326;2023-02-28T12:15:05;16.25;;;7.65;;
59880;SDS011;45751;51.380;10.326;2023-02-28T12:20:59;7.90;;;2.97;;
59880;SDS011;45751;51.380;10.326;2023-02-28T12:29:16;6.97;;;2.38;;
59880;SDS011;45751;51.380;10.326;2023-02-28T12:34:52;6.60;;;2.47;;
59880;SDS011;45751;51.380;10.326;2023-02-28T12:39:59;6.63;;;3.17;;
59880;SDS011;45751;51.380;10.326;2023-02-28T12:42:32;8.88;;;2.90;;
59880;SDS011;45751;51.380;10.326;2023-02-28T12:45:07;7.15;;;2.13;;
59880;SDS011;45751;51.380;10.326;2023-02-28T12:47:40;8.85;;;2.78;;
59880;SDS011;45751;51.380;10.326;2023-02-28T12:50:10;10.10;;;3.08;;
59880;SDS011;45751;51.380;10.326;2023-02-28T12:52:44;7.65;;;2.80;;
59880;SDS011;45751;51.380;10.326;2023-02-28T12:58:09;7.07;;;2.72;;
59880;SDS011;45751;51.380;10.326;2023-02-28T13:09:53;8.55;;;2.67;;
59880;SDS011;45751;51.380;10.326;2023-02-28T13:12:22;10.90;;;2.58;;
59880;SDS011;45751;51.380;10.326;2023-02-28T13:14:50;12.45;;;3.25;;
59880;SDS011;45751;51.380;10.326;2023-02-28T13:17:39;9.20;;;3.63;;
59880;SDS011;45751;51.380;10.326;2023-02-28T13:20:16;11.05;;;4.03;;
59880;SDS011;45751;51.380;10.326;2023-02-28T13:22:50;9.38;;;3.78;;
59880;SDS011;45751;51.380;10.326;2023-02-28T13:27:52;8.45;;;3.78;;
59880;SDS011;45751;51.380;10.326;2023-02-28T13:36:07;7.25;;;3.33;;
59880;SDS011;45751;51.380;10.326;2023-02-28T13:38:50;10.35;;;4.55;;
59880;SDS011;45751;51.380;10.326;2023-02-28T13:41:43;8.63;;;3.58;;
59880;SDS011;45751;51.380;10.326;2023-02-28T13:44:13;7.97;;;3.72;;
59880;SDS011;45751;51.380;10.326;2023-02-28T13:49:28;7.47;;;2.97;;
59880;SDS011;45751;51.380;10.326;2023-02-28T14:05:40;8.30;;;3.53;;
59880;SDS011;45751;51.380;10.326;2023-02-28T14:08:14;10.82;;;3.97;;
59880;SDS011;45751;51.380;10.326;2023-02-28T14:10:50;7.95;;;3.25;;
59880;SDS011;45751;51.380;10.326;2023-02-28T14:13:42;8.57;;;3.10;;
59880;SDS011;45751;51.380;10.326;2023-02-28T14:16:13;8.07;;;3.95;;
59880;SDS011;45751;51.380;10.326;2023-02-28T14:18:42;9.30;;;4.60;;
59880;SDS011;45751;51.380;10.326;2023-02-28T14:29:30;7.65;;;3.17;;
59880;SDS011;45751;51.380;10.326;2023-02-28T14:37:20;9.73;;;3.80;;
59880;SDS011;45751;51.380;10.326;2023-02-28T14:39:54;8.27;;;3.55;;
59880;SDS011;45751;51.380;10.326;2023-02-28T14:44:57;8.43;;;3.80;;
59880;SDS011;45751;51.380;10.326;2023-02-28T14:47:28;9.27;;;3.67;;
59880;SDS011;45751;51.380;10.326;2023-02-28T14:49:58;9.48;;;3.50;;
59880;SDS011;45751;51.380;10.326;2023-02-28T14:52:27;8.35;;;3.20;;
59880;SDS011;45751;51.380;10.326;2023-02-28T14:54:57;7.97;;;3.40;;
59880;SDS011;45751;51.380;10.326;2023-02-28T14:57:31;12.45;;;4.20;;
59880;SDS011;45751;51.380;10.326;2023-02-28T15:02:44;10.13;;;4.43;;
59880;SDS011;45751;51.380;10.326;2023-02-28T15:07:39;14.77;;;6.38;;
59880;SDS011;45751;51.380;10.326;2023-02-28T15:12:57;11.02;;;3.83;;
59880;SDS011;45751;51.380;10.326;2023-02-28T15:18:52;8.00;;;3.88;;
59880;SDS011;45751;51.380;10.326;2023-02-28T15:21:26;8.02;;;3.00;;
59880;SDS011;45751;51.380;10.326;2023-02-28T15:23:58;9.93;;;4.28;;
59880;SDS011;45751;51.380;10.326;2023-02-28T15:26:30;8.57;;;3.40;;
59880;SDS011;45751;51.380;10.326;2023-02-28T15:29:13;9.43;;;3.92;;
59880;SDS011;45751;51.380;10.326;2023-02-28T15:31:44;9.05;;;4.63;;
59880;SDS011;45751;51.380;10.326;2023-02-28T15:34:27;8.05;;;3.40;;
59880;SDS011;45751;51.380;10.326;2023-02-28T15:40:15;10.50;;;3.60;;
59880;SDS011;45751;51.380;10.326;2023-02-28T15:45:34;9.52;;;4.25;;
59880;SDS011;45751;51.380;10.326;2023-02-28T15:50:41;9.40;;;4.40;;
59880;SDS011;45751;51.380;10.326;2023-02-28T15:53:19;8.73;;;3.58;;
59880;SDS011;45751;51.380;10.326;2023-02-28T15:55:53;10.77;;;4.70;;
59880;SDS011;45751;51.380;10.326;2023-02-28T15:58:23;10.82;;;4.60;;
59880;SDS011;45751;51.380;10.326;2023-02-28T16:01:06;11.07;;;4.93;;
59880;SDS011;45751;51.380;10.326;2023-02-28T16:03:44;9.75;;;3.55;;
59880;SDS011;45751;51.380;10.326;2023-02-28T16:06:23;11.57;;;4.70;;
59880;SDS011;45751;51.380;10.326;2023-02-28T16:09:06;8.95;;;4.32;;
59880;SDS011;45751;51.380;10.326;2023-02-28T16:11:38;12.02;;;4.65;;
59880;SDS011;45751;51.380;10.326;2023-02-28T16:14:12;9.40;;;4.20;;
59880;SDS011;45751;51.380;10.326;2023-02-28T16:16:45;9.57;;;4.28;;
59880;SDS011;45751;51.380;10.326;2023-02-28T16:19:15;10.32;;;3.88;;
59880;SDS011;45751;51.380;10.326;2023-02-28T16:21:43;11.38;;;4.70;;
59880;SDS011;45751;51.380;10.326;2023-02-28T16:24:10;10.20;;;3.92;;
59880;SDS011;45751;51.380;10.326;2023-02-28T16:26:38;9.40;;;4.15;;
59880;SDS011;45751;51.380;10.326;2023-02-28T16:29:07;10.48;;;4.20;;
59880;SDS011;45751;51.380;10.326;2023-02-28T16:31:40;8.95;;;4.53;;
59880;SDS011;45751;51.380;10.326;2023-02-28T16:34:07;11.27;;;4.45;;
59880;SDS011;45751;51.380;10.326;2023-02-28T16:36:33;9.93;;;4.57;;
59880;SDS011;45751;51.380;10.326;2023-02-28T16:39:00;12.82;;;5.80;;
59880;SDS011;45751;51.380;10.326;2023-02-28T16:41:29;11.90;;;5.00;;
59880;SDS011;45751;51.380;10.326;2023-02-28T16:43:56;11.15;;;4.72;;
59880;SDS011;45751;51.380;10.326;2023-02-28T16:46:35;11.27;;;4.78;;
59880;SDS011;45751;51.380;10.326;2023-02-28T16:49:02;10.45;;;4.75;;
59880;SDS011;45751;51.380;10.326;2023-02-28T16:51:29;14.70;;;7.55;;
59880;SDS011;45751;51.380;10.326;2023-02-28T16:54:00;24.35;;;12.23;;
59880;SDS011;45751;51.380;10.326;2023-02-28T16:56:27;23.15;;;10.52;;
59880;SDS011;45751;51.380;10.326;2023-02-28T16:58:54;13.90;;;5.47;;
59880;SDS011;45751;51.380;10.326;2023-02-28T17:01:25;11.95;;;5.32;;
59880;SDS011;45751;51.380;10.326;2023-02-28T17:03:54;12.55;;;4.38;;
59880;SDS011;45751;51.380;10.326;2023-02-28T17:06:28;9.25;;;3.83;;
59880;SDS011;45751;51.380;10.326;2023-02-28T17:08:57;12.95;;;5.18;;
59880;SDS011;45751;51.380;10.326;2023-02-28T17:11:25;12.35;;;5.15;;
59880;SDS011;45751;51.380;10.326;2023-02-28T17:13:53;10.98;;;4.93;;
59880;SDS011;45751;51.380;10.326;2023-02-28T17:16:23;13.27;;;5.50;;
59880;SDS011;45751;51.380;10.326;2023-02-28T17:18:59;10.10;;;4.43;;
59880;SDS011;45751;51.380;10.326;2023-02-28T17:21:28;10.60;;;4.63;;
59880;SDS011;45751;51.380;10.326;2023-02-28T17:23:56;9.55;;;4.53;;
59880;SDS011;45751;51.380;10.326;2023-02-28T17:26:24;11.52;;;5.22;;
59880;SDS011;45751;51.380;10.326;2023-02-28T17:28:54;12.77;;;4.07;;
59880;SDS011;45751;51.380;10.326;2023-02-28T17:31:23;9.82;;;4.38;;
59880;SDS011;45751;51.380;10.326;2023-02-28T17:33:51;14.50;;;5.53;;
59880;SDS011;45751;51.380;10.326;2023-02-28T17:36:22;13.60;;;5.72;;
59880;SDS011;45751;51.380;10.326;2023-02-28T17:38:52;11.65;;;5.18;;
59880;SDS011;45751;51.380;10.326;2023-02-28T17:41:21;10.02;;;4.70;;
59880;SDS011;45751;51.380;10.326;2023-02-28T17:43:48;10.30;;;5.03;;
59880;SDS011;45751;51.380;10.326;2023-02-28T17:46:18;10.63;;;4.75;;